Time;durP1;ratioP1;P1;durP2;ratioP2;P2;SDS_P1;SDS_P2;PMS_P1;PMS_P2;Temp;Humidity;BMP_temperature;BMP_pressure;BME280_temperature;BME280_humidity;BME280_pressure;Samples;Min_cycle;Max_cycle;Signal;HPM_P1;HPM_P2
2022/03/22 00:01:26;;;;;;;9.10;5.43;;;5.40;59.50;;;;;;5038700;28;20109;-81
2022/03/22 00:03:52;;;;;;;8.25;5.03;;;5.40;59.60;;;;;;5039380;28;20086;-81
2022/03/22 00:06:18;;;;;;;8.63;5.38;;;5.40;59.70;;;;;;5038178;28;20037;-81
2022/03/22 00:08:47;;;;;;;9.43;6.00;;;5.30;59.80;;;;;;5032864;28;20390;-82
2022/03/22 00:11:14;;;;;;;7.82;5.68;;;5.30;60.30;;;;;;5023888;28;20431;-81
2022/03/22 00:13:43;;;;;;;7.45;5.20;;;5.20;60.50;;;;;;5032725;28;20042;-83
2022/03/22 00:16:09;;;;;;;8.15;5.35;;;5.20;60.60;;;;;;5019555;28;20021;-83
2022/03/22 00:18:35;;;;;;;9.85;6.45;;;5.20;60.90;;;;;;5020756;28;20078;-83
2022/03/22 00:21:01;;;;;;;8.90;5.25;;;5.20;61.10;;;;;;5030225;28;20030;-83
2022/03/22 00:23:28;;;;;;;10.00;5.75;;;5.20;61.20;;;;;;5037106;28;20048;-82
2022/03/22 00:25:54;;;;;;;10.75;5.97;;;5.20;61.40;;;;;;5023158;28;20026;-82
2022/03/22 00:28:20;;;;;;;9.73;6.05;;;5.10;61.40;;;;;;5029140;28;20026;-83
2022/03/22 00:30:46;;;;;;;9.10;5.97;;;5.10;61.40;;;;;;5038438;28;20021;-83
2022/03/22 00:33:12;;;;;;;9.27;5.75;;;5.00;61.50;;;;;;5038008;28;20025;-82
2022/03/22 00:35:39;;;;;;;8.45;5.38;;;4.90;61.60;;;;;;5036445;28;20466;-82
2022/03/22 00:38:11;;;;;;;11.13;6.95;;;4.90;61.80;;;;;;5029871;28;20096;-79
2022/03/22 00:40:38;;;;;;;12.52;6.93;;;4.80;62.00;;;;;;5016789;28;20193;-78
2022/03/22 00:43:05;;;;;;;12.32;7.88;;;4.80;62.40;;;;;;5015680;28;20038;-79
2022/03/22 00:45:33;;;;;;;11.90;7.32;;;4.70;62.80;;;;;;5016499;28;20026;-79
2022/03/22 00:47:59;;;;;;;11.18;7.45;;;4.60;63.30;;;;;;5027544;28;20481;-78
2022/03/22 00:50:37;;;;;;;13.77;7.55;;;4.60;65.30;;;;;;5034089;28;20028;-78
2022/03/22 00:53:05;;;;;;;13.65;7.40;;;4.60;64.10;;;;;;5016935;28;20037;-79
2022/03/22 00:55:32;;;;;;;9.05;6.10;;;4.50;64.40;;;;;;5014664;28;20034;-79
2022/03/22 00:57:58;;;;;;;10.18;6.35;;;4.50;64.50;;;;;;5015935;28;20383;-79
2022/03/22 01:00:25;;;;;;;10.65;5.55;;;4.50;64.70;;;;;;5015924;28;20105;-79
2022/03/22 01:02:54;;;;;;;11.55;7.25;;;4.50;65.00;;;;;;5033998;28;20541;-78
2022/03/22 01:05:21;;;;;;;12.10;6.05;;;4.50;65.40;;;;;;5034351;28;20109;-79
2022/03/22 01:07:49;;;;;;;13.38;7.05;;;4.50;65.70;;;;;;5034108;28;20107;-78
2022/03/22 01:10:16;;;;;;;12.70;7.88;;;4.40;65.90;;;;;;5035437;28;20056;-78
2022/03/22 01:12:44;;;;;;;9.77;6.72;;;4.40;66.20;;;;;;5033558;28;20025;-78
2022/03/22 01:15:15;;;;;;;13.65;8.02;;;4.40;67.10;;;;;;5033594;28;20025;-78
2022/03/22 01:17:45;;;;;;;13.18;7.80;;;4.40;66.70;;;;;;5027388;28;20052;-79
2022/03/22 01:20:12;;;;;;;12.77;7.55;;;4.40;66.70;;;;;;5022196;28;20068;-78
2022/03/22 01:22:43;;;;;;;11.57;7.03;;;4.40;66.70;;;;;;5035107;28;20053;-79
2022/03/22 01:25:13;;;;;;;10.88;6.70;;;4.40;66.70;;;;;;5040283;28;20026;-79
2022/03/22 01:27:39;;;;;;;11.73;6.72;;;4.30;66.50;;;;;;5027135;28;20100;-79
2022/03/22 01:30:07;;;;;;;13.85;7.97;;;4.30;66.50;;;;;;5023248;28;20092;-78
2022/03/22 01:32:34;;;;;;;12.23;6.82;;;4.30;66.40;;;;;;5025740;28;20140;-79
2022/03/22 01:35:01;;;;;;;12.35;7.55;;;4.30;66.40;;;;;;5024811;28;20025;-79
2022/03/22 01:37:27;;;;;;;12.45;7.57;;;4.20;66.50;;;;;;5029535;28;20048;-79
2022/03/22 01:39:53;;;;;;;11.90;7.55;;;4.20;66.70;;;;;;5035689;28;20022;-78
2022/03/22 01:42:19;;;;;;;11.05;7.25;;;4.20;66.80;;;;;;5035045;28;20114;-78
2022/03/22 01:44:44;;;;;;;11.98;6.97;;;4.20;66.90;;;;;;5029724;28;20413;-78
2022/03/22 01:47:11;;;;;;;12.73;7.47;;;4.30;67.00;;;;;;5017449;28;20062;-79
2022/03/22 01:49:37;;;;;;;11.93;7.63;;;4.20;66.60;;;;;;5013899;28;20025;-79
2022/03/22 01:52:04;;;;;;;11.25;7.32;;;4.20;66.30;;;;;;5025327;28;20270;-79
2022/03/22 01:54:30;;;;;;;11.27;7.22;;;4.20;65.60;;;;;;5039476;28;20082;-79
2022/03/22 01:56:55;;;;;;;9.50;6.32;;;4.20;65.40;;;;;;5040794;28;20022;-79
2022/03/22 01:59:21;;;;;;;12.45;7.15;;;4.10;65.10;;;;;;5016423;28;20443;-80
2022/03/22 02:07:20;;;;;;;9.52;6.18;;;4.00;65.10;;;;;;5022203;28;20469;-78
2022/03/22 02:09:45;;;;;;;10.10;6.32;;;4.00;65.10;;;;;;5032651;28;20033;-79
2022/03/22 02:12:11;;;;;;;10.05;6.45;;;4.00;65.10;;;;;;5032792;28;20021;-78
2022/03/22 02:14:37;;;;;;;9.43;6.03;;;4.00;65.20;;;;;;5033977;28;20061;-78
2022/03/22 02:17:10;;;;;;;10.65;6.15;;;4.00;65.20;;;;;;5036922;28;20030;-78
2022/03/22 02:19:41;;;;;;;10.00;6.40;;;3.90;65.40;;;;;;5021980;28;20032;-79
2022/03/22 02:22:12;;;;;;;11.00;6.40;;;3.90;65.40;;;;;;5027214;28;20032;-78
2022/03/22 02:24:38;;;;;;;9.80;5.65;;;3.90;65.50;;;;;;5030794;28;20029;-78
2022/03/22 02:27:06;;;;;;;9.63;6.03;;;3.90;65.60;;;;;;5032502;28;20120;-78
2022/03/22 02:29:32;;;;;;;9.07;5.97;;;3.80;65.90;;;;;;5015011;28;20026;-78
2022/03/22 02:31:57;;;;;;;8.35;5.78;;;3.80;66.20;;;;;;5025755;28;20249;-78
2022/03/22 02:34:23;;;;;;;9.88;5.15;;;3.80;66.50;;;;;;5032668;28;20144;-78
2022/03/22 02:36:52;;;;;;;7.72;5.30;;;3.80;66.70;;;;;;5043291;28;20048;-78
2022/03/22 02:39:20;;;;;;;8.60;5.68;;;3.80;67.00;;;;;;5033294;28;20041;-78
2022/03/22 02:41:51;;;;;;;8.93;5.50;;;3.80;67.10;;;;;;5012402;28;20026;-78
2022/03/22 02:44:18;;;;;;;9.63;5.50;;;3.70;67.20;;;;;;5014297;28;20151;-77
2022/03/22 02:46:44;;;;;;;7.70;5.15;;;3.70;67.40;;;;;;5013581;28;20022;-78
2022/03/22 02:49:10;;;;;;;8.63;5.75;;;3.70;67.60;;;;;;5014844;28;20080;-78
2022/03/22 02:51:35;;;;;;;9.88;6.03;;;3.60;67.50;;;;;;5026541;28;20026;-78
2022/03/22 02:54:01;;;;;;;9.65;6.03;;;3.60;67.40;;;;;;5031640;28;20105;-78
2022/03/22 02:56:27;;;;;;;12.30;6.50;;;3.60;67.80;;;;;;5033509;28;20084;-79
2022/03/22 02:58:53;;;;;;;10.45;6.45;;;3.50;68.40;;;;;;5032877;28;20481;-78
2022/03/22 03:01:19;;;;;;;9.43;6.18;;;3.50;68.80;;;;;;5030662;28;20041;-78
2022/03/22 03:03:44;;;;;;;8.90;5.90;;;3.50;69.10;;;;;;5017154;28;20033;-78
2022/03/22 03:06:12;;;;;;;10.45;6.03;;;3.40;69.30;;;;;;5013589;28;20120;-79
2022/03/22 03:08:37;;;;;;;8.73;5.65;;;3.40;69.60;;;;;;5012814;28;20048;-79
2022/03/22 03:11:04;;;;;;;11.43;6.45;;;3.40;69.70;;;;;;5014689;28;20026;-79
2022/03/22 03:14:38;;;;;;;10.25;6.30;;;3.30;69.80;;;;;;5011870;28;20026;-79
2022/03/22 03:16:16;;;;;;;10.68;5.82;;;3.30;69.80;;;;;;5014299;28;20032;-79
2022/03/22 03:18:42;;;;;;;8.05;5.00;;;3.30;70.00;;;;;;5013065;28;20470;-78
2022/03/22 03:21:08;;;;;;;8.88;6.18;;;3.20;70.20;;;;;;5023348;28;20109;-79
2022/03/22 03:23:34;;;;;;;10.48;6.07;;;3.20;70.60;;;;;;5034134;28;20449;-80
2022/03/22 03:26:00;;;;;;;9.90;6.35;;;3.20;70.70;;;;;;5040283;28;20029;-80
2022/03/22 03:28:25;;;;;;;12.18;6.68;;;3.10;70.70;;;;;;5039856;28;20032;-80
2022/03/22 03:30:51;;;;;;;11.32;6.40;;;3.10;70.60;;;;;;5040499;28;20041;-80
2022/03/22 03:33:17;;;;;;;11.27;6.75;;;3.10;70.50;;;;;;5022719;28;20141;-80
2022/03/22 03:35:42;;;;;;;9.95;6.28;;;3.00;70.60;;;;;;5021460;28;20030;-80
2022/03/22 03:38:08;;;;;;;10.50;5.85;;;3.00;70.80;;;;;;5021435;28;20057;-80
2022/03/22 03:43:18;;;;;;;8.80;5.28;;;2.90;71.40;;;;;;5034121;28;20060;-82
2022/03/22 03:48:28;;;;;;;11.18;6.13;;;3.10;79.60;;;;;;5040774;28;20404;-80
2022/03/22 03:50:57;;;;;;;8.25;5.40;;;3.00;72.80;;;;;;5037347;28;20041;-81
2022/03/22 03:53:23;;;;;;;9.43;5.47;;;3.10;73.90;;;;;;5032689;28;20045;-78
2022/03/22 03:55:49;;;;;;;10.52;5.82;;;3.00;76.50;;;;;;5022519;28;20196;-80
2022/03/22 03:58:14;;;;;;;12.20;6.03;;;3.10;76.00;;;;;;5021121;28;20053;-80
2022/03/22 04:00:40;;;;;;;11.63;7.10;;;3.10;75.10;;;;;;5021400;28;20032;-80
2022/03/22 04:03:06;;;;;;;11.02;6.07;;;3.00;73.80;;;;;;5022561;28;20088;-80
2022/03/22 04:05:32;;;;;;;7.47;5.38;;;2.90;73.70;;;;;;5042487;28;20133;-79
2022/03/22 04:07:57;;;;;;;11.98;6.40;;;2.80;71.50;;;;;;5044841;28;20026;-80
2022/03/22 04:10:23;;;;;;;12.57;7.20;;;2.80;70.90;;;;;;5045335;28;20100;-80
2022/03/22 04:12:51;;;;;;;10.50;6.65;;;2.80;70.90;;;;;;5039353;28;20048;-81
2022/03/22 04:15:18;;;;;;;11.13;6.43;;;2.70;71.10;;;;;;5025507;28;20285;-80
2022/03/22 04:34:59;;;;;;;10.07;5.75;;;2.60;72.10;;;;;;5029401;28;20059;-79
2022/03/22 04:37:25;;;;;;;8.70;5.45;;;2.50;72.30;;;;;;5031349;28;20482;-79
2022/03/22 04:40:01;;;;;;;8.02;5.25;;;2.50;72.40;;;;;;5034117;28;20053;-80
2022/03/22 04:42:30;;;;;;;8.60;5.30;;;2.50;72.40;;;;;;5042019;28;20022;-79
2022/03/22 04:44:55;;;;;;;7.35;4.97;;;2.50;72.50;;;;;;5040887;28;20032;-80
2022/03/22 04:47:21;;;;;;;9.10;5.25;;;2.50;72.70;;;;;;5041798;28;20045;-80
2022/03/22 04:49:47;;;;;;;11.18;5.95;;;2.60;72.90;;;;;;5044823;28;20113;-81
2022/03/22 04:57:43;;;;;;;8.30;5.47;;;2.50;73.50;;;;;;5018453;28;20088;-79
2022/03/22 05:00:09;;;;;;;9.23;5.40;;;2.50;74.10;;;;;;5021668;28;20030;-79
2022/03/22 05:02:35;;;;;;;9.63;5.22;;;2.50;74.30;;;;;;5018792;28;20029;-80
2022/03/22 05:05:01;;;;;;;6.50;5.07;;;2.50;74.50;;;;;;5016635;28;20477;-80
2022/03/22 05:07:29;;;;;;;8.93;5.90;;;2.50;74.70;;;;;;5019094;28;20018;-78
2022/03/22 05:09:55;;;;;;;11.50;6.22;;;2.50;75.00;;;;;;5026229;28;20030;-79
2022/03/22 05:12:21;;;;;;;10.82;6.40;;;2.40;75.20;;;;;;5017419;28;20048;-80
2022/03/22 05:14:50;;;;;;;9.15;5.93;;;2.40;75.40;;;;;;5016919;28;20495;-80
2022/03/22 05:17:21;;;;;;;9.68;6.45;;;2.40;75.60;;;;;;5020145;28;20071;-81
2022/03/22 05:19:49;;;;;;;9.75;6.05;;;2.40;75.70;;;;;;5043893;22;20040;-80
2022/03/22 05:22:14;;;;;;;9.95;6.05;;;2.40;75.70;;;;;;5061346;28;20044;-80
2022/03/22 05:41:56;;;;;;;12.90;7.18;;;2.30;73.90;;;;;;5043855;28;20040;-79
2022/03/22 05:44:22;;;;;;;14.60;7.10;;;2.30;74.00;;;;;;5057517;28;20021;-79
2022/03/22 05:46:49;;;;;;;11.15;6.78;;;2.30;74.00;;;;;;5055028;28;20071;-80
2022/03/22 05:49:14;;;;;;;17.30;7.78;;;2.30;74.10;;;;;;5045101;28;20471;-79
2022/03/22 05:51:40;;;;;;;12.85;7.40;;;2.40;74.30;;;;;;5064074;28;20014;-79
2022/03/22 05:54:07;;;;;;;10.90;6.20;;;2.40;74.00;;;;;;5056768;28;20028;-79
2022/03/22 05:56:33;;;;;;;11.93;6.40;;;2.50;73.50;;;;;;5043794;28;20221;-78
2022/03/22 05:58:59;;;;;;;11.57;6.80;;;2.50;73.10;;;;;;5041577;28;20311;-77
2022/03/22 06:01:27;;;;;;;13.85;7.55;;;2.50;72.60;;;;;;5043451;28;20100;-79
2022/03/22 06:03:53;;;;;;;11.73;7.18;;;2.50;72.50;;;;;;5052143;28;20029;-78
2022/03/22 06:06:18;;;;;;;11.40;6.75;;;2.60;72.70;;;;;;5045071;28;20403;-80
2022/03/22 06:08:45;;;;;;;14.30;7.25;;;2.70;72.70;;;;;;5061691;28;20025;-78
2022/03/22 06:11:11;;;;;;;16.23;7.32;;;2.70;72.30;;;;;;5060758;28;20032;-79
2022/03/22 06:13:36;;;;;;;9.77;6.72;;;2.80;71.60;;;;;;5063214;28;20021;-78
2022/03/22 06:16:05;;;;;;;11.25;6.65;;;2.80;71.40;;;;;;5046137;28;20041;-78
2022/03/22 06:18:30;;;;;;;12.00;6.85;;;3.00;71.40;;;;;;5042593;28;20022;-79
2022/03/22 06:20:56;;;;;;;11.68;6.85;;;3.00;71.10;;;;;;5056637;28;20048;-79
2022/03/22 06:23:23;;;;;;;11.35;6.35;;;3.10;70.80;;;;;;5043703;28;20053;-79
2022/03/22 06:25:48;;;;;;;12.93;7.78;;;3.20;70.50;;;;;;5043132;28;20131;-78
2022/03/22 06:28:14;;;;;;;11.80;6.50;;;3.30;70.40;;;;;;5040510;28;20108;-77
2022/03/22 06:30:41;;;;;;;10.18;6.35;;;3.30;70.10;;;;;;5041840;28;20029;-79
2022/03/22 06:33:16;;;;;;;10.23;5.90;;;3.40;70.00;;;;;;5045455;28;20052;-79
2022/03/22 06:36:01;;;;;;;9.73;5.70;;;3.50;70.00;;;;;;5045379;28;20025;-79
2022/03/22 06:38:32;;;;;;;10.18;5.97;;;3.50;69.90;;;;;;5041962;28;20028;-79
2022/03/22 06:41:00;;;;;;;13.18;6.85;;;3.60;69.70;;;;;;5042623;28;20025;-79
2022/03/22 06:43:26;;;;;;;12.25;6.55;;;3.70;69.60;;;;;;5055719;28;20017;-79
2022/03/22 06:45:52;;;;;;;16.73;8.38;;;3.70;69.40;;;;;;5060098;28;20429;-79
2022/03/22 06:48:18;;;;;;;14.60;8.50;;;3.80;69.30;;;;;;5061325;28;20090;-80
2022/03/22 06:50:49;;;;;;;14.98;8.35;;;3.80;69.00;;;;;;5052260;28;20053;-79
2022/03/22 06:53:15;;;;;;;11.05;6.85;;;3.90;68.90;;;;;;5053381;28;20035;-78
2022/03/22 06:55:41;;;;;;;11.30;7.20;;;3.90;68.80;;;;;;5067592;28;20017;-78
2022/03/22 06:58:08;;;;;;;14.82;7.85;;;4.00;68.60;;;;;;5069047;28;20036;-78
2022/03/22 07:00:34;;;;;;;10.82;6.38;;;4.10;68.50;;;;;;5068579;28;20071;-78
2022/03/22 07:03:01;;;;;;;10.02;6.45;;;4.20;68.40;;;;;;5064477;28;20021;-78
2022/03/22 07:05:28;;;;;;;9.63;6.50;;;4.30;68.20;;;;;;5048832;28;20056;-78
2022/03/22 07:07:54;;;;;;;14.50;7.68;;;4.40;67.90;;;;;;5057325;28;20036;-79
2022/03/22 07:10:20;;;;;;;9.10;6.32;;;4.60;67.70;;;;;;5070868;28;20033;-79
2022/03/22 07:12:57;;;;;;;12.73;7.75;;;4.60;67.30;;;;;;5067911;28;20500;-79
2022/03/22 07:15:43;;;;;;;13.45;7.38;;;4.70;66.90;;;;;;5042963;28;20033;-78
2022/03/22 07:18:12;;;;;;;11.48;7.00;;;4.80;66.60;;;;;;5040717;28;20067;-79
2022/03/22 07:20:39;;;;;;;10.63;6.95;;;5.00;66.50;;;;;;5055906;28;20044;-78
2022/03/22 07:23:05;;;;;;;18.00;9.25;;;5.00;66.20;;;;;;5057022;28;20022;-79
2022/03/22 07:25:33;;;;;;;12.63;8.43;;;5.20;65.80;;;;;;5054985;28;20037;-78
2022/03/22 07:27:59;;;;;;;11.88;7.55;;;5.30;65.70;;;;;;5058529;28;20025;-78
2022/03/22 07:30:25;;;;;;;10.73;6.70;;;5.50;65.60;;;;;;5046739;28;20076;-78
2022/03/22 07:32:51;;;;;;;16.95;8.63;;;5.60;65.20;;;;;;5039406;28;20401;-78
2022/03/22 07:35:19;;;;;;;9.90;6.10;;;5.70;64.70;;;;;;5041254;28;20067;-80
2022/03/22 07:37:45;;;;;;;18.33;8.73;;;5.90;64.40;;;;;;5045612;28;20035;-78
2022/03/22 07:40:11;;;;;;;12.35;7.68;;;6.00;63.90;;;;;;5062902;28;20025;-79
2022/03/22 07:42:38;;;;;;;12.38;7.63;;;6.10;63.50;;;;;;5062181;28;20029;-79
2022/03/22 07:45:09;;;;;;;15.57;8.57;;;6.30;63.30;;;;;;5066856;28;20081;-79
2022/03/22 07:47:35;;;;;;;13.90;8.25;;;6.40;62.30;;;;;;5069083;28;20041;-80
2022/03/22 07:53:00;;;;;;;13.63;8.55;;;6.60;61.70;;;;;;5055724;28;20040;-79
2022/03/22 07:55:29;;;;;;;13.75;8.73;;;6.80;61.40;;;;;;5051173;28;20018;-78
2022/03/22 07:57:57;;;;;;;10.23;7.45;;;6.90;60.80;;;;;;5041041;28;20053;-77
2022/03/22 08:00:23;;;;;;;17.95;8.85;;;7.20;60.70;;;;;;5040960;28;20377;-80
2022/03/22 08:02:51;;;;;;;12.40;7.78;;;7.40;59.80;;;;;;5041771;28;20022;-78
2022/03/22 08:05:17;;;;;;;13.95;8.35;;;7.60;59.20;;;;;;5038594;28;20045;-78
2022/03/22 08:07:43;;;;;;;12.82;8.07;;;7.70;58.70;;;;;;5040398;28;20128;-79
2022/03/22 08:10:09;;;;;;;17.80;8.88;;;8.00;58.60;;;;;;5040496;28;20094;-80
2022/03/22 08:12:35;;;;;;;11.80;6.78;;;8.20;57.80;;;;;;5057941;28;20055;-78
2022/03/22 08:15:01;;;;;;;13.95;8.65;;;8.50;57.40;;;;;;5054309;28;20034;-78
2022/03/22 08:17:27;;;;;;;14.35;9.00;;;8.80;56.20;;;;;;5042863;28;20017;-79
2022/03/22 08:19:53;;;;;;;13.10;8.30;;;8.90;55.30;;;;;;5048715;28;20154;-78
2022/03/22 08:22:19;;;;;;;15.20;8.35;;;8.90;54.80;;;;;;5047998;28;20390;-79
2022/03/22 08:24:45;;;;;;;13.27;7.82;;;9.10;54.20;;;;;;5044164;28;20026;-79
2022/03/22 08:27:11;;;;;;;15.38;8.38;;;9.20;53.90;;;;;;5044623;28;20037;-80
2022/03/22 08:29:37;;;;;;;13.02;8.13;;;9.30;53.70;;;;;;5063031;28;20067;-80
2022/03/22 08:32:02;;;;;;;13.93;8.88;;;9.50;53.20;;;;;;5064689;28;20122;-79
2022/03/22 08:34:28;;;;;;;14.23;8.70;;;9.50;52.60;;;;;;5051120;28;20042;-77
2022/03/22 08:36:54;;;;;;;16.48;8.48;;;9.70;52.10;;;;;;5044878;28;20394;-78
2022/03/22 08:39:20;;;;;;;15.13;8.10;;;9.90;52.30;;;;;;5066385;28;20103;-79
2022/03/22 08:41:47;;;;;;;15.82;8.98;;;10.00;51.40;;;;;;5065519;28;20389;-79
2022/03/22 08:44:13;;;;;;;16.77;7.90;;;10.20;51.10;;;;;;5058241;28;20017;-79
2022/03/22 08:46:38;;;;;;;11.82;7.75;;;10.30;51.10;;;;;;5045290;28;20021;-79
2022/03/22 08:49:07;;;;;;;12.63;8.55;;;10.60;50.70;;;;;;5061558;28;20113;-80
2022/03/22 08:51:33;;;;;;;16.38;8.48;;;10.70;49.90;;;;;;5062803;28;20033;-78
2022/03/22 08:53:58;;;;;;;14.30;9.13;;;10.70;49.50;;;;;;5056134;28;20029;-79
2022/03/22 08:56:24;;;;;;;14.90;8.10;;;10.80;49.20;;;;;;5053039;28;20040;-79
2022/03/22 08:58:53;;;;;;;13.60;7.45;;;10.90;49.30;;;;;;5054705;28;20030;-79
2022/03/22 09:01:24;;;;;;;14.13;8.18;;;11.10;49.10;;;;;;5061992;28;20212;-78
2022/03/22 09:06:07;;;;;;;13.55;8.48;;;11.20;48.60;;;;;;5063275;28;20093;-79
2022/03/22 09:06:37;;;;;;;9.48;7.38;;;11.20;48.70;;;;;;5072613;28;20036;-80
2022/03/22 09:09:04;;;;;;;12.90;7.35;;;11.50;48.20;;;;;;5076994;28;20032;-78
2022/03/22 09:11:30;;;;;;;14.77;8.30;;;11.70;47.40;;;;;;5076747;28;20036;-79
2022/03/22 09:13:56;;;;;;;12.80;7.78;;;11.80;46.70;;;;;;5072758;28;20029;-79
2022/03/22 09:16:21;;;;;;;11.05;7.47;;;12.10;46.40;;;;;;5065347;28;20393;-80
2022/03/22 09:18:48;;;;;;;9.02;6.55;;;12.50;46.30;;;;;;5065761;28;20040;-79
2022/03/22 09:21:15;;;;;;;12.88;7.65;;;12.70;45.40;;;;;;5059385;28;20057;-79
2022/03/22 09:23:41;;;;;;;9.82;7.32;;;12.90;45.00;;;;;;5054028;28;20029;-81
2022/03/22 09:26:06;;;;;;;17.08;8.20;;;12.90;44.50;;;;;;5054294;28;20069;-79
2022/03/22 09:28:32;;;;;;;13.05;7.60;;;13.20;44.50;;;;;;5043499;28;20030;-79
2022/03/22 09:30:58;;;;;;;12.25;8.50;;;13.50;43.60;;;;;;5048927;28;20074;-80
2022/03/22 09:33:24;;;;;;;13.73;9.15;;;13.50;43.30;;;;;;5060781;28;20025;-79
2022/03/22 09:35:53;;;;;;;14.90;8.40;;;13.40;43.30;;;;;;5059079;28;20075;-78
2022/03/22 09:38:19;;;;;;;16.50;9.10;;;13.40;43.30;;;;;;5040973;28;20052;-78
2022/03/22 09:40:45;;;;;;;15.32;9.45;;;13.30;43.60;;;;;;5038453;28;20029;-79
2022/03/22 09:43:12;;;;;;;15.73;8.57;;;13.20;44.10;;;;;;5052092;28;20080;-79
2022/03/22 09:45:38;;;;;;;10.75;8.05;;;13.20;43.50;;;;;;5059146;28;20021;-79
2022/03/22 09:48:04;;;;;;;12.57;8.48;;;13.40;43.80;;;;;;5042763;28;20053;-79
2022/03/22 09:53:17;;;;;;;16.20;8.63;;;13.70;43.10;;;;;;5058643;28;20564;-78
2022/03/22 09:55:44;;;;;;;12.35;7.95;;;13.80;42.80;;;;;;5059653;28;20481;-78
2022/03/22 09:58:10;;;;;;;16.63;7.60;;;14.00;42.40;;;;;;5060802;28;20075;-79
2022/03/22 10:00:36;;;;;;;12.27;8.23;;;14.20;42.40;;;;;;5062708;28;20401;-79
2022/03/22 10:03:02;;;;;;;11.15;7.45;;;14.30;42.00;;;;;;5053392;28;20028;-79
2022/03/22 10:05:29;;;;;;;13.25;8.68;;;14.50;41.80;;;;;;5042831;28;20017;-79
2022/03/22 10:08:06;;;;;;;12.18;7.75;;;14.50;41.40;;;;;;5043680;28;20080;-79
2022/03/22 10:10:32;;;;;;;14.10;8.02;;;14.50;41.60;;;;;;5044570;28;20025;-78
2022/03/22 10:13:00;;;;;;;13.50;8.75;;;14.50;41.40;;;;;;5045163;28;21322;-78
2022/03/22 10:15:34;;;;;;;13.15;8.48;;;14.40;41.10;;;;;;5061228;28;20033;-77
2022/03/22 10:18:08;;;;;;;21.25;9.30;;;14.50;41.30;;;;;;5051007;28;20493;-79
2022/03/22 10:20:36;;;;;;;21.83;9.27;;;14.70;41.20;;;;;;5051360;28;20021;-79
2022/03/22 10:23:03;;;;;;;10.27;7.10;;;14.60;40.60;;;;;;5045579;28;20091;-79
2022/03/22 10:25:31;;;;;;;10.57;7.68;;;14.60;40.90;;;;;;5039088;28;20049;-78
2022/03/22 10:27:59;;;;;;;11.88;7.68;;;14.90;40.70;;;;;;5061493;28;20025;-79
2022/03/22 10:30:25;;;;;;;11.43;8.05;;;15.10;40.20;;;;;;5060439;28;20090;-81
2022/03/22 10:32:51;;;;;;;10.90;7.40;;;15.20;39.50;;;;;;5053483;28;20044;-80
2022/03/22 10:35:29;;;;;;;10.85;7.38;;;15.40;39.60;;;;;;5040490;28;20052;-79
2022/03/22 10:38:04;;;;;;;10.98;7.47;;;15.90;38.40;;;;;;5038863;28;20390;-79
2022/03/22 10:40:32;;;;;;;13.25;7.03;;;16.70;38.10;;;;;;5055426;28;20033;-79
2022/03/22 10:43:06;;;;;;;13.43;8.32;;;18.00;35.60;;;;;;5063305;28;20113;-78
2022/03/22 10:46:02;;;;;;;11.38;8.30;;;17.90;34.90;;;;;;5062567;28;20454;-79
2022/03/22 10:48:34;;;;;;;10.95;7.30;;;16.90;35.60;;;;;;5061504;28;20025;-78
2022/03/22 10:51:00;;;;;;;;;;;16.50;36.80;;;;;;5054557;28;20507;-78
2022/03/22 10:53:27;;;;;;;10.10;7.95;;;16.40;36.50;;;;;;5047659;28;19909;-79
2022/03/22 10:55:57;;;;;;;11.60;6.95;;;16.30;36.70;;;;;;5039837;28;20446;-79
2022/03/22 10:58:28;;;;;;;12.45;8.23;;;16.30;36.60;;;;;;5047633;28;20056;-79
2022/03/22 11:00:55;;;;;;;12.73;7.57;;;16.20;37.00;;;;;;5060382;28;20088;-78
2022/03/22 11:03:22;;;;;;;10.48;7.68;;;16.10;37.20;;;;;;5053595;28;20057;-78
2022/03/22 11:05:55;;;;;;;9.85;7.97;;;16.00;37.80;;;;;;5042283;28;20021;-78
2022/03/22 11:08:22;;;;;;;;;;;16.10;38.00;;;;;;5055264;28;20029;-79
2022/03/22 11:10:51;;;;;;;14.07;7.18;;;16.10;38.00;;;;;;5043685;28;19905;-79
2022/03/22 11:13:17;;;;;;;10.82;7.82;;;16.10;37.80;;;;;;5054759;28;20021;-78
2022/03/22 11:15:46;;;;;;;12.48;7.50;;;16.30;37.60;;;;;;5047195;28;20066;-78
2022/03/22 11:18:18;;;;;;;11.75;7.50;;;16.60;37.00;;;;;;5045079;28;20030;-78
2022/03/22 11:20:58;;;;;;;8.50;6.65;;;16.90;36.50;;;;;;5056365;23;20045;-80
2022/03/22 11:23:25;;;;;;;8.90;7.07;;;17.10;36.10;;;;;;5035227;28;20411;-80
2022/03/22 11:25:52;;;;;;;14.23;8.50;;;17.00;35.70;;;;;;5037992;28;20029;-80
2022/03/22 11:28:21;;;;;;;11.27;7.43;;;16.80;35.00;;;;;;5036199;28;20036;-80
2022/03/22 11:30:47;;;;;;;8.80;6.82;;;16.80;35.90;;;;;;5038336;28;20064;-80
2022/03/22 11:36:18;;;;;;;12.40;8.23;;;16.90;35.40;;;;;;5039310;28;20032;-81
2022/03/22 11:38:49;;;;;;;12.80;8.55;;;16.60;35.20;;;;;;5036592;28;20038;-80
2022/03/22 11:44:23;;;;;;;12.13;7.80;;;16.60;35.70;;;;;;5039324;28;20043;-81
2022/03/22 11:47:14;;;;;;;10.23;7.00;;;16.80;35.20;;;;;;5051644;28;20029;-79
2022/03/22 11:49:58;;;;;;;12.43;7.45;;;16.90;34.90;;;;;;5051194;28;20026;-80
2022/03/22 11:52:35;;;;;;;12.45;7.88;;;16.80;35.10;;;;;;5041092;28;20089;-80
2022/03/22 11:55:05;;;;;;;10.73;7.88;;;17.10;34.60;;;;;;5039537;28;20079;-80
2022/03/22 11:57:47;;;;;;;9.82;7.68;;;17.40;34.40;;;;;;5041007;28;20017;-79
2022/03/22 12:00:15;;;;;;;11.75;7.95;;;17.90;34.80;;;;;;5041006;28;20116;-80
2022/03/22 12:02:43;;;;;;;11.38;8.23;;;18.20;33.30;;;;;;5040820;28;20068;-81
2022/03/22 12:05:09;;;;;;;14.63;7.63;;;18.00;32.30;;;;;;5040579;28;20040;-81
2022/03/22 12:07:37;;;;;;;12.55;7.75;;;17.60;32.80;;;;;;5039456;28;20068;-79
2022/03/22 12:10:12;;;;;;;15.18;8.52;;;17.40;33.30;;;;;;5040282;28;20037;-80
2022/03/22 12:12:40;;;;;;;12.23;8.20;;;17.10;33.20;;;;;;5042721;28;20036;-79
2022/03/22 12:15:08;;;;;;;9.88;7.20;;;16.90;33.40;;;;;;5041593;28;20045;-79
2022/03/22 12:17:35;;;;;;;8.27;6.72;;;17.00;33.80;;;;;;5040684;28;20034;-79
2022/03/22 12:20:04;;;;;;;9.52;6.63;;;16.90;33.70;;;;;;5040535;28;20037;-79
2022/03/22 12:22:31;;;;;;;8.45;6.82;;;16.90;33.80;;;;;;5040179;28;20116;-79
2022/03/22 12:24:58;;;;;;;11.02;7.47;;;17.10;33.80;;;;;;5040753;28;20463;-79
2022/03/22 12:27:24;;;;;;;12.43;6.68;;;17.30;33.00;;;;;;5040082;28;20077;-80
2022/03/22 12:29:50;;;;;;;9.30;7.22;;;17.10;32.10;;;;;;5039340;28;20064;-81
2022/03/22 12:32:18;;;;;;;6.82;5.95;;;16.90;32.80;;;;;;5040538;28;20052;-79
2022/03/22 12:34:45;;;;;;;12.30;6.90;;;16.80;33.70;;;;;;5040277;28;20087;-80
2022/03/22 12:37:12;;;;;;;10.93;7.22;;;16.80;32.50;;;;;;5037676;28;20029;-79
2022/03/22 12:39:41;;;;;;;11.00;7.22;;;16.90;32.60;;;;;;5038986;28;20464;-79
2022/03/22 12:42:07;;;;;;;14.48;7.90;;;17.20;32.70;;;;;;5039718;28;20029;-79
2022/03/22 12:44:33;;;;;;;13.95;7.93;;;17.50;32.40;;;;;;5039965;28;20025;-79
2022/03/22 12:47:00;;;;;;;8.35;6.82;;;17.50;32.10;;;;;;5040020;28;20068;-79
2022/03/22 12:49:27;;;;;;;8.77;6.93;;;17.30;32.70;;;;;;5039361;28;20530;-79
2022/03/22 12:51:54;;;;;;;12.88;7.38;;;17.10;33.30;;;;;;5040072;28;20075;-79
2022/03/22 12:54:19;;;;;;;11.07;7.07;;;17.20;33.00;;;;;;5038911;28;20025;-80
2022/03/22 12:56:49;;;;;;;12.45;7.70;;;17.30;32.80;;;;;;5041359;28;20029;-80
2022/03/22 12:59:23;;;;;;;12.82;6.68;;;17.30;32.50;;;;;;5039461;28;20200;-79
2022/03/22 13:01:57;;;;;;;9.25;6.53;;;17.50;32.70;;;;;;5041240;28;20025;-79
2022/03/22 13:04:25;;;;;;;11.77;8.32;;;17.70;32.70;;;;;;5038131;28;20022;-79
2022/03/22 13:07:06;;;;;;;9.30;7.20;;;17.90;32.40;;;;;;5039688;28;20022;-79
2022/03/22 13:12:18;;;;;;;12.02;8.07;;;17.70;33.10;;;;;;5054380;28;20232;-79
2022/03/22 13:15:04;;;;;;;9.65;7.72;;;17.80;32.70;;;;;;5056325;28;20081;-79
2022/03/22 13:17:34;;;;;;;13.07;7.28;;;18.10;32.80;;;;;;5053207;28;20037;-79
2022/03/22 13:20:04;;;;;;;10.88;7.63;;;18.30;32.30;;;;;;5049259;28;20037;-80
2022/03/22 13:22:30;;;;;;;10.32;7.40;;;18.40;32.00;;;;;;5042543;28;20037;-79
2022/03/22 13:25:09;;;;;;;13.05;7.88;;;18.20;32.40;;;;;;5044621;28;20026;-79
2022/03/22 13:27:36;;;;;;;9.75;7.85;;;18.20;32.10;;;;;;5044811;28;20020;-79
2022/03/22 13:30:15;;;;;;;9.07;6.65;;;18.10;32.40;;;;;;5041265;28;20091;-79
2022/03/22 13:32:40;;;;;;;11.05;7.72;;;18.10;32.70;;;;;;5055128;28;20029;-79
2022/03/22 13:35:06;;;;;;;9.75;6.75;;;18.20;32.70;;;;;;5038772;28;20336;-79
2022/03/22 13:37:47;;;;;;;10.07;7.97;;;18.20;32.50;;;;;;5037733;28;20152;-81
2022/03/22 13:40:13;;;;;;;8.75;6.68;;;18.10;33.30;;;;;;5039308;28;20096;-79
2022/03/22 13:43:02;;;;;;;9.95;6.72;;;18.30;33.50;;;;;;5040640;28;20022;-79
2022/03/22 13:45:28;;;;;;;9.60;7.55;;;18.70;33.10;;;;;;5039477;28;20056;-79
2022/03/22 13:47:55;;;;;;;8.80;7.05;;;19.20;32.20;;;;;;5045681;28;20533;-79
2022/03/22 13:50:27;;;;;;;9.57;6.47;;;19.00;31.90;;;;;;5047124;28;20022;-79
2022/03/22 13:53:15;;;;;;;11.73;7.72;;;18.90;31.90;;;;;;5039359;28;20109;-79
2022/03/22 13:55:46;;;;;;;7.78;6.68;;;18.80;31.60;;;;;;5044605;28;20077;-80